nws-alerts: Checking more than four warning/county codes can delay the loading of your pages. You should use a cron job to get the data.
EllijayWeather Station Historical Data
Daily Summary for May 12, 2019 Units:  Both    English   Metric
Daily Weekly Monthly Yearly Custom
  High: Low: Average:
Temperature: 70 °F /  21.1 °C 62.4 °F /  16.9 °C 65.6 °F /  18.7 °C
Dew Point: 66.4 °F /  19.1 °C 61.5 °F /  16.4 °C 64.5 °F /  18.1 °C
Humidity: 99% 85% 96%
Wind Speed: 2mph /  3.2km/h - 0mph /  0km/h
Wind Gust: 8mph /  12.9km/h - -
Wind- - ESE
Pressure: 29.87 in /  1011.4 hPa 29.73 in /  1006.7 hPa -
Precipitation: 0.03 in /  0.76 mm    
Historical Graphs
 
 
Tabular Data for May 12, 2019
Time Temperature Dew Point Pressure Wind Wind Speed Wind Gust Humidity Rainfall Rate (Hourly) solar
00:04 66.6 °F /  19.2 °C 65.7 °F /  18.7 °C 29.85in /  1010.7hPa Calm     97% 0in /  0mm meteobridge W/m2
00:09 66.4 °F /  19.1 °C 65.5 °F /  18.6 °C 29.85in /  1010.7hPa Calm     97% 0in /  0mm meteobridge W/m2
00:14 66.4 °F /  19.1 °C 65.5 °F /  18.6 °C 29.85in /  1010.7hPa Calm     97% 0in /  0mm meteobridge W/m2
00:19 66 °F /  18.9 °C 64.8 °F /  18.2 °C 29.86in /  1011.1hPa North 0.9mph /  1.4km/h 1mph /  1.6km/h 96% 0in /  0mm meteobridge W/m2
00:24 66 °F /  18.9 °C 64.8 °F /  18.2 °C 29.86in /  1011.1hPa Calm   1mph /  1.6km/h 96% 0in /  0mm meteobridge W/m2
00:29 66 °F /  18.9 °C 65.1 °F /  18.4 °C 29.85in /  1010.7hPa Calm     97% 0in /  0mm meteobridge W/m2
00:34 66 °F /  18.9 °C 65.1 °F /  18.4 °C 29.86in /  1011.1hPa Calm     97% 0in /  0mm meteobridge W/m2
00:39 66 °F /  18.9 °C 65.1 °F /  18.4 °C 29.86in /  1011.1hPa Calm     97% 0in /  0mm meteobridge W/m2
00:44 66 °F /  18.9 °C 65.1 °F /  18.4 °C 29.86in /  1011.1hPa Calm     97% 0in /  0mm meteobridge W/m2
00:49 65.8 °F /  18.8 °C 65.3 °F /  18.5 °C 29.86in /  1011.1hPa Calm     98% 0in /  0mm meteobridge W/m2
00:54 65.8 °F /  18.8 °C 65.3 °F /  18.5 °C 29.86in /  1011.1hPa Calm     98% 0in /  0mm meteobridge W/m2
00:59 65.8 °F /  18.8 °C 65.3 °F /  18.5 °C 29.86in /  1011.1hPa Calm   1mph /  1.6km/h 98% 0in /  0mm meteobridge W/m2
01:04 65.8 °F /  18.8 °C 65.3 °F /  18.5 °C 29.86in /  1011.1hPa Calm     98% 0in /  0mm meteobridge W/m2
01:09 65.8 °F /  18.8 °C 65.3 °F /  18.5 °C 29.86in /  1011.1hPa Calm     98% 0in /  0mm meteobridge W/m2
01:14 65.8 °F /  18.8 °C 65.3 °F /  18.5 °C 29.86in /  1011.1hPa Calm     98% 0in /  0mm meteobridge W/m2
01:19 65.8 °F /  18.8 °C 65.3 °F /  18.5 °C 29.86in /  1011.1hPa Calm     98% 0in /  0mm meteobridge W/m2
01:24 65.8 °F /  18.8 °C 65.3 °F /  18.5 °C 29.87in /  1011.4hPa ENE 2mph /  3.2km/h 5mph /  8km/h 98% 0in /  0mm meteobridge W/m2
01:29 65.8 °F /  18.8 °C 65.3 °F /  18.5 °C 29.87in /  1011.4hPa Calm     98% 0in /  0mm meteobridge W/m2
01:34 65.8 °F /  18.8 °C 65.3 °F /  18.5 °C 29.87in /  1011.4hPa Calm   1mph /  1.6km/h 98% 0.01in /  0.25mm meteobridge W/m2
01:39 65.7 °F /  18.7 °C 65.1 °F /  18.4 °C 29.87in /  1011.4hPa Calm   1mph /  1.6km/h 98% 0.01in /  0.25mm meteobridge W/m2
01:44 65.8 °F /  18.8 °C 65.3 °F /  18.5 °C 29.86in /  1011.1hPa Calm     98% 0.01in /  0.25mm meteobridge W/m2
01:49 65.8 °F /  18.8 °C 65.3 °F /  18.5 °C 29.86in /  1011.1hPa Calm   1mph /  1.6km/h 98% 0.01in /  0.25mm meteobridge W/m2
01:54 65.7 °F /  18.7 °C 64.8 °F /  18.2 °C 29.86in /  1011.1hPa Calm   1mph /  1.6km/h 97% 0.01in /  0.25mm meteobridge W/m2
01:59 65.7 °F /  18.7 °C 65.1 °F /  18.4 °C 29.86in /  1011.1hPa Calm   7mph /  11.3km/h 98% 0.01in /  0.25mm meteobridge W/m2
02:04 65.7 °F /  18.7 °C 65.1 °F /  18.4 °C 29.86in /  1011.1hPa Calm     98% 0.01in /  0.25mm meteobridge W/m2
02:09 65.7 °F /  18.7 °C 64.8 °F /  18.2 °C 29.86in /  1011.1hPa Calm   3mph /  4.8km/h 97% 0.01in /  0.25mm meteobridge W/m2
02:14 65.5 °F /  18.6 °C 64.6 °F /  18.1 °C 29.85in /  1010.7hPa ENE 2mph /  3.2km/h 2mph /  3.2km/h 97% 0.01in /  0.25mm meteobridge W/m2
02:19 65.3 °F /  18.5 °C 64.4 °F /  18 °C 29.85in /  1010.7hPa Calm     97% 0.01in /  0.25mm meteobridge W/m2
02:24 65.1 °F /  18.4 °C 64.2 °F /  17.9 °C 29.85in /  1010.7hPa Calm     97% 0.01in /  0.25mm meteobridge W/m2
02:29 65.1 °F /  18.4 °C 64.2 °F /  17.9 °C 29.84in /  1010.4hPa Calm     97% 0.01in /  0.25mm meteobridge W/m2
02:34 65.1 °F /  18.4 °C 64.6 °F /  18.1 °C 29.84in /  1010.4hPa Calm     98% 0in /  0mm meteobridge W/m2
02:39 64.9 °F /  18.3 °C 64.4 °F /  18 °C 29.84in /  1010.4hPa Calm     98% 0in /  0mm meteobridge W/m2
02:44 64.9 °F /  18.3 °C 64.4 °F /  18 °C 29.83in /  1010hPa Calm     98% 0in /  0mm meteobridge W/m2
02:49 64.9 °F /  18.3 °C 64.4 °F /  18 °C 29.83in /  1010hPa Calm     98% 0in /  0mm meteobridge W/m2
02:54 64.9 °F /  18.3 °C 64.4 °F /  18 °C 29.82in /  1009.7hPa Calm     98% 0in /  0mm meteobridge W/m2
02:59 64.9 °F /  18.3 °C 64.4 °F /  18 °C 29.81in /  1009.4hPa Calm     98% 0in /  0mm meteobridge W/m2
03:04 64.9 °F /  18.3 °C 64.4 °F /  18 °C 29.80in /  1009hPa Calm     98% 0in /  0mm meteobridge W/m2
03:09 64.9 °F /  18.3 °C 64.4 °F /  18 °C 29.80in /  1009hPa Calm     98% 0in /  0mm meteobridge W/m2
03:14 64.8 °F /  18.2 °C 64.2 °F /  17.9 °C 29.80in /  1009hPa Calm     98% 0in /  0mm meteobridge W/m2
03:19 64.8 °F /  18.2 °C 64.2 °F /  17.9 °C 29.79in /  1008.7hPa Calm     98% 0in /  0mm meteobridge W/m2
03:24 64.8 °F /  18.2 °C 64.2 °F /  17.9 °C 29.79in /  1008.7hPa Calm     98% 0in /  0mm meteobridge W/m2
03:29 64.8 °F /  18.2 °C 64.2 °F /  17.9 °C 29.77in /  1008hPa Calm     98% 0in /  0mm meteobridge W/m2
03:34 64.8 °F /  18.2 °C 64.2 °F /  17.9 °C 29.79in /  1008.7hPa Calm     98% 0in /  0mm meteobridge W/m2
03:39 64.8 °F /  18.2 °C 64.4 °F /  18 °C 29.79in /  1008.7hPa Calm     99% 0in /  0mm meteobridge W/m2
03:44 64.8 °F /  18.2 °C 64.4 °F /  18 °C 29.79in /  1008.7hPa Calm     99% 0in /  0mm meteobridge W/m2
03:49 64.8 °F /  18.2 °C 64.4 °F /  18 °C 29.79in /  1008.7hPa Calm     99% 0in /  0mm meteobridge W/m2
03:54 64.8 °F /  18.2 °C 64.4 °F /  18 °C 29.79in /  1008.7hPa Calm     99% 0in /  0mm meteobridge W/m2
03:59 64.8 °F /  18.2 °C 64.4 °F /  18 °C 29.78in /  1008.4hPa Calm     99% 0in /  0mm meteobridge W/m2
04:04 64.8 °F /  18.2 °C 64.4 °F /  18 °C 29.77in /  1008hPa Calm     99% 0in /  0mm meteobridge W/m2
04:09 64.8 °F /  18.2 °C 64.4 °F /  18 °C 29.78in /  1008.4hPa Calm     99% 0in /  0mm meteobridge W/m2
04:14 64.6 °F /  18.1 °C 64.2 °F /  17.9 °C 29.78in /  1008.4hPa Calm     99% 0in /  0mm meteobridge W/m2
04:19 64.6 °F /  18.1 °C 64.2 °F /  17.9 °C 29.79in /  1008.7hPa Calm     99% 0in /  0mm meteobridge W/m2
04:24 64.6 °F /  18.1 °C 64.2 °F /  17.9 °C 29.78in /  1008.4hPa Calm     99% 0in /  0mm meteobridge W/m2
04:29 64.8 °F /  18.2 °C 64.4 °F /  18 °C 29.79in /  1008.7hPa Calm     99% 0in /  0mm meteobridge W/m2
04:34 64.8 °F /  18.2 °C 64.4 °F /  18 °C 29.79in /  1008.7hPa Calm     99% 0in /  0mm meteobridge W/m2
04:39 64.8 °F /  18.2 °C 64.4 °F /  18 °C 29.79in /  1008.7hPa Calm     99% 0in /  0mm meteobridge W/m2
04:44 64.8 °F /  18.2 °C 64.4 °F /  18 °C 29.79in /  1008.7hPa Calm     99% 0in /  0mm meteobridge W/m2
04:49 64.8 °F /  18.2 °C 64.4 °F /  18 °C 29.79in /  1008.7hPa Calm     99% 0in /  0mm meteobridge W/m2
04:54 64.8 °F /  18.2 °C 64.4 °F /  18 °C 29.78in /  1008.4hPa Calm     99% 0in /  0mm meteobridge W/m2
04:59 64.8 °F /  18.2 °C 64.4 °F /  18 °C 29.78in /  1008.4hPa Calm     99% 0in /  0mm meteobridge W/m2
05:04 64.8 °F /  18.2 °C 64.4 °F /  18 °C 29.78in /  1008.4hPa Calm     99% 0in /  0mm meteobridge W/m2
05:09 64.6 °F /  18.1 °C 64.2 °F /  17.9 °C 29.77in /  1008hPa Calm     99% 0in /  0mm meteobridge W/m2
05:14 64.6 °F /  18.1 °C 64.2 °F /  17.9 °C 29.77in /  1008hPa Calm     99% 0in /  0mm meteobridge W/m2
05:19 64.6 °F /  18.1 °C 64.2 °F /  17.9 °C 29.76in /  1007.7hPa Calm     99% 0in /  0mm meteobridge W/m2
05:24 64.6 °F /  18.1 °C 64.2 °F /  17.9 °C 29.76in /  1007.7hPa Calm     99% 0in /  0mm meteobridge W/m2
05:29 64.4 °F /  18 °C 63.9 °F /  17.7 °C 29.76in /  1007.7hPa Calm     98% 0in /  0mm meteobridge W/m2
05:34 64.4 °F /  18 °C 64 °F /  17.8 °C 29.76in /  1007.7hPa Calm     99% 0in /  0mm meteobridge W/m2
05:39 64.4 °F /  18 °C 64 °F /  17.8 °C 29.77in /  1008hPa Calm     99% 0in /  0mm meteobridge W/m2
05:44 64.4 °F /  18 °C 64 °F /  17.8 °C 29.78in /  1008.4hPa Calm     99% 0in /  0mm meteobridge W/m2
05:49 64.4 °F /  18 °C 64 °F /  17.8 °C 29.79in /  1008.7hPa Calm     99% 0in /  0mm meteobridge W/m2
05:54 64.4 °F /  18 °C 64 °F /  17.8 °C 29.80in /  1009hPa Calm     99% 0in /  0mm meteobridge W/m2
05:59 64.4 °F /  18 °C 64 °F /  17.8 °C 29.80in /  1009hPa Calm     99% 0in /  0mm meteobridge W/m2
06:04 64.4 °F /  18 °C 64 °F /  17.8 °C 29.80in /  1009hPa Calm     99% 0in /  0mm meteobridge W/m2
06:09 64.4 °F /  18 °C 64 °F /  17.8 °C 29.80in /  1009hPa Calm     99% 0in /  0mm meteobridge W/m2
06:14 64.2 °F /  17.9 °C 63.9 °F /  17.7 °C 29.80in /  1009hPa Calm     99% 0in /  0mm meteobridge W/m2
06:19 64.2 °F /  17.9 °C 63.9 °F /  17.7 °C 29.80in /  1009hPa Calm     99% 0in /  0mm meteobridge W/m2
06:24 64.4 °F /  18 °C 64 °F /  17.8 °C 29.80in /  1009hPa Calm     99% 0in /  0mm meteobridge W/m2
06:29 64.4 °F /  18 °C 64 °F /  17.8 °C 29.80in /  1009hPa Calm     99% 0in /  0mm meteobridge W/m2
06:34 64.4 °F /  18 °C 64 °F /  17.8 °C 29.80in /  1009hPa Calm     99% 0in /  0mm meteobridge W/m2
06:39 64.4 °F /  18 °C 64 °F /  17.8 °C 29.80in /  1009hPa Calm     99% 0in /  0mm meteobridge W/m2
06:44 64.4 °F /  18 °C 64 °F /  17.8 °C 29.81in /  1009.4hPa Calm     99% 0in /  0mm meteobridge W/m2
06:49 64.2 °F /  17.9 °C 63.9 °F /  17.7 °C 29.81in /  1009.4hPa Calm     99% 0in /  0mm meteobridge W/m2
06:54 64.2 °F /  17.9 °C 63.9 °F /  17.7 °C 29.82in /  1009.7hPa Calm     99% 0in /  0mm meteobridge W/m2
06:59 64.2 °F /  17.9 °C 63.9 °F /  17.7 °C 29.82in /  1009.7hPa Calm     99% 0.01in /  0.25mm meteobridge W/m2
07:04 64.2 °F /  17.9 °C 63.9 °F /  17.7 °C 29.82in /  1009.7hPa Calm     99% 0.01in /  0.25mm meteobridge W/m2
07:09 64.2 °F /  17.9 °C 63.9 °F /  17.7 °C 29.82in /  1009.7hPa Calm     99% 0.01in /  0.25mm meteobridge W/m2
07:14 64.2 °F /  17.9 °C 63.9 °F /  17.7 °C 29.82in /  1009.7hPa Calm     99% 0.01in /  0.25mm meteobridge W/m2
07:19 64.2 °F /  17.9 °C 63.9 °F /  17.7 °C 29.82in /  1009.7hPa Calm     99% 0.01in /  0.25mm meteobridge W/m2
07:24 64.2 °F /  17.9 °C 63.9 °F /  17.7 °C 29.83in /  1010hPa Calm   3mph /  4.8km/h 99% 0.01in /  0.25mm meteobridge W/m2
07:29 64.2 °F /  17.9 °C 63.9 °F /  17.7 °C 29.83in /  1010hPa Calm   1mph /  1.6km/h 99% 0.01in /  0.25mm meteobridge W/m2
07:34 64.2 °F /  17.9 °C 63.9 °F /  17.7 °C 29.83in /  1010hPa Calm   3mph /  4.8km/h 99% 0.01in /  0.25mm meteobridge W/m2
07:39 64.2 °F /  17.9 °C 63.9 °F /  17.7 °C 29.83in /  1010hPa Calm     99% 0.01in /  0.25mm meteobridge W/m2
07:44 64.2 °F /  17.9 °C 63.9 °F /  17.7 °C 29.82in /  1009.7hPa Calm     99% 0.01in /  0.25mm meteobridge W/m2
07:49 64.2 °F /  17.9 °C 63.9 °F /  17.7 °C 29.82in /  1009.7hPa Calm     99% 0.01in /  0.25mm meteobridge W/m2
07:54 64.2 °F /  17.9 °C 63.9 °F /  17.7 °C 29.83in /  1010hPa Calm     99% 0.01in /  0.25mm meteobridge W/m2
07:59 64.4 °F /  18 °C 64 °F /  17.8 °C 29.83in /  1010hPa Calm   1mph /  1.6km/h 99% 0in /  0mm meteobridge W/m2
08:04 64.2 °F /  17.9 °C 63.9 °F /  17.7 °C 29.82in /  1009.7hPa Calm     99% 0in /  0mm meteobridge W/m2
08:09 64.4 °F /  18 °C 64 °F /  17.8 °C 29.82in /  1009.7hPa Calm     99% 0in /  0mm meteobridge W/m2
08:14 64.2 °F /  17.9 °C 63.9 °F /  17.7 °C 29.81in /  1009.4hPa Calm     99% 0in /  0mm meteobridge W/m2
08:19 64.2 °F /  17.9 °C 63.9 °F /  17.7 °C 29.81in /  1009.4hPa Calm     99% 0in /  0mm meteobridge W/m2
08:24 64.4 °F /  18 °C 64 °F /  17.8 °C 29.81in /  1009.4hPa Calm     99% 0in /  0mm meteobridge W/m2
08:29 64.4 °F /  18 °C 64 °F /  17.8 °C 29.81in /  1009.4hPa Calm     99% 0in /  0mm meteobridge W/m2
08:34 64.6 °F /  18.1 °C 64.2 °F /  17.9 °C 29.81in /  1009.4hPa Calm     99% 0in /  0mm meteobridge W/m2
08:39 64.8 °F /  18.2 °C 64.4 °F /  18 °C 29.81in /  1009.4hPa Calm     99% 0in /  0mm meteobridge W/m2
08:44 64.9 °F /  18.3 °C 64.6 °F /  18.1 °C 29.81in /  1009.4hPa Calm     99% 0in /  0mm meteobridge W/m2
08:49 65.1 °F /  18.4 °C 64.8 °F /  18.2 °C 29.82in /  1009.7hPa Calm     99% 0in /  0mm meteobridge W/m2
08:54 65.1 °F /  18.4 °C 64.8 °F /  18.2 °C 29.82in /  1009.7hPa Calm     99% 0in /  0mm meteobridge W/m2
08:59 65.1 °F /  18.4 °C 64.8 °F /  18.2 °C 29.82in /  1009.7hPa Calm     99% 0in /  0mm meteobridge W/m2
09:04 65.1 °F /  18.4 °C 64.8 °F /  18.2 °C 29.82in /  1009.7hPa Calm   1mph /  1.6km/h 99% 0in /  0mm meteobridge W/m2
09:09 64.9 °F /  18.3 °C 64.4 °F /  18 °C 29.82in /  1009.7hPa Calm     98% 0in /  0mm meteobridge W/m2
09:14 64.9 °F /  18.3 °C 64.4 °F /  18 °C 29.82in /  1009.7hPa Calm   3mph /  4.8km/h 98% 0in /  0mm meteobridge W/m2
09:19 64.9 °F /  18.3 °C 64.4 °F /  18 °C 29.82in /  1009.7hPa NE 0.9mph /  1.4km/h 1mph /  1.6km/h 98% 0in /  0mm meteobridge W/m2
09:24 64.9 °F /  18.3 °C 64.4 °F /  18 °C 29.82in /  1009.7hPa Calm     98% 0in /  0mm meteobridge W/m2
09:29 64.9 °F /  18.3 °C 64.4 °F /  18 °C 29.81in /  1009.4hPa Calm     98% 0in /  0mm meteobridge W/m2
09:34 64.9 °F /  18.3 °C 64.4 °F /  18 °C 29.81in /  1009.4hPa NW 0.9mph /  1.4km/h 4mph /  6.4km/h 98% 0in /  0mm meteobridge W/m2
09:39 64.9 °F /  18.3 °C 64.4 °F /  18 °C 29.80in /  1009hPa Calm     98% 0in /  0mm meteobridge W/m2
09:44 64.9 °F /  18.3 °C 64.4 °F /  18 °C 29.80in /  1009hPa Calm     98% 0in /  0mm meteobridge W/m2
09:49 65.1 °F /  18.4 °C 64.8 °F /  18.2 °C 29.82in /  1009.7hPa Calm     99% 0in /  0mm meteobridge W/m2
09:54 65.1 °F /  18.4 °C 64.8 °F /  18.2 °C 29.82in /  1009.7hPa Calm   1mph /  1.6km/h 99% 0in /  0mm meteobridge W/m2
09:59 65.3 °F /  18.5 °C 64.8 °F /  18.2 °C 29.83in /  1010hPa NE 2mph /  3.2km/h 3mph /  4.8km/h 98% 0in /  0mm meteobridge W/m2
10:04 65.3 °F /  18.5 °C 64.8 °F /  18.2 °C 29.82in /  1009.7hPa Calm     98% 0in /  0mm meteobridge W/m2
10:09 65.3 °F /  18.5 °C 64.8 °F /  18.2 °C 29.83in /  1010hPa Calm   2mph /  3.2km/h 98% 0in /  0mm meteobridge W/m2
10:14 65.5 °F /  18.6 °C 64.9 °F /  18.3 °C 29.82in /  1009.7hPa Calm     98% 0in /  0mm meteobridge W/m2
10:19 65.5 °F /  18.6 °C 64.9 °F /  18.3 °C 29.82in /  1009.7hPa Calm   2mph /  3.2km/h 98% 0in /  0mm meteobridge W/m2
10:24 65.5 °F /  18.6 °C 64.9 °F /  18.3 °C 29.82in /  1009.7hPa Calm     98% 0in /  0mm meteobridge W/m2
10:29 65.5 °F /  18.6 °C 64.9 °F /  18.3 °C 29.82in /  1009.7hPa Calm     98% 0in /  0mm meteobridge W/m2
10:34 65.5 °F /  18.6 °C 64.6 °F /  18.1 °C 29.82in /  1009.7hPa Calm     97% 0in /  0mm meteobridge W/m2
10:39 65.3 °F /  18.5 °C 64.4 °F /  18 °C 29.82in /  1009.7hPa Calm   1mph /  1.6km/h 97% 0in /  0mm meteobridge W/m2
10:44 65.1 °F /  18.4 °C 64.6 °F /  18.1 °C 29.82in /  1009.7hPa Calm     98% 0in /  0mm meteobridge W/m2
10:49 64.9 °F /  18.3 °C 64 °F /  17.8 °C 29.82in /  1009.7hPa Calm   5mph /  8km/h 97% 0in /  0mm meteobridge W/m2
10:54 64.8 °F /  18.2 °C 63.9 °F /  17.7 °C 29.82in /  1009.7hPa Calm   2mph /  3.2km/h 97% 0in /  0mm meteobridge W/m2
10:59 64.6 °F /  18.1 °C 64 °F /  17.8 °C 29.82in /  1009.7hPa Calm   1mph /  1.6km/h 98% 0in /  0mm meteobridge W/m2
11:04 64.8 °F /  18.2 °C 64.2 °F /  17.9 °C 29.82in /  1009.7hPa Calm     98% 0in /  0mm meteobridge W/m2
11:09 64.6 °F /  18.1 °C 64 °F /  17.8 °C 29.81in /  1009.4hPa Calm     98% 0in /  0mm meteobridge W/m2
11:14 64.6 °F /  18.1 °C 64 °F /  17.8 °C 29.82in /  1009.7hPa Calm     98% 0in /  0mm meteobridge W/m2
11:19 64.6 °F /  18.1 °C 64 °F /  17.8 °C 29.82in /  1009.7hPa Calm   2mph /  3.2km/h 98% 0in /  0mm meteobridge W/m2
11:24 64.6 °F /  18.1 °C 64 °F /  17.8 °C 29.82in /  1009.7hPa Calm     98% 0in /  0mm meteobridge W/m2
11:29 64.6 °F /  18.1 °C 64 °F /  17.8 °C 29.81in /  1009.4hPa Calm     98% 0in /  0mm meteobridge W/m2
11:34 64.6 °F /  18.1 °C 64 °F /  17.8 °C 29.82in /  1009.7hPa Calm   1mph /  1.6km/h 98% 0in /  0mm meteobridge W/m2
11:39 64.6 °F /  18.1 °C 64.2 °F /  17.9 °C 29.83in /  1010hPa Calm     99% 0in /  0mm meteobridge W/m2
11:44 64.8 °F /  18.2 °C 64.4 °F /  18 °C 29.83in /  1010hPa Calm   1mph /  1.6km/h 99% 0in /  0mm meteobridge W/m2
11:49 64.8 °F /  18.2 °C 64.4 °F /  18 °C 29.83in /  1010hPa Calm   2mph /  3.2km/h 99% 0in /  0mm meteobridge W/m2
11:54 64.8 °F /  18.2 °C 64.2 °F /  17.9 °C 29.83in /  1010hPa Calm     98% 0in /  0mm meteobridge W/m2
11:59 64.8 °F /  18.2 °C 64.2 °F /  17.9 °C 29.83in /  1010hPa Calm     98% 0in /  0mm meteobridge W/m2
12:04 64.8 °F /  18.2 °C 64.2 °F /  17.9 °C 29.84in /  1010.4hPa Calm   2mph /  3.2km/h 98% 0in /  0mm meteobridge W/m2
12:09 64.6 °F /  18.1 °C 64 °F /  17.8 °C 29.83in /  1010hPa Calm     98% 0in /  0mm meteobridge W/m2
12:14 64.8 °F /  18.2 °C 64.2 °F /  17.9 °C 29.83in /  1010hPa Calm     98% 0in /  0mm meteobridge W/m2
12:19 64.8 °F /  18.2 °C 64.4 °F /  18 °C 29.83in /  1010hPa Calm   2mph /  3.2km/h 99% 0in /  0mm meteobridge W/m2
12:24 64.8 °F /  18.2 °C 64.4 °F /  18 °C 29.83in /  1010hPa Calm     99% 0in /  0mm meteobridge W/m2
12:29 64.8 °F /  18.2 °C 64.2 °F /  17.9 °C 29.83in /  1010hPa Calm     98% 0in /  0mm meteobridge W/m2
12:34 64.8 °F /  18.2 °C 64.2 °F /  17.9 °C 29.82in /  1009.7hPa Calm   5mph /  8km/h 98% 0in /  0mm meteobridge W/m2
12:39 64.8 °F /  18.2 °C 64.2 °F /  17.9 °C 29.82in /  1009.7hPa Calm     98% 0in /  0mm meteobridge W/m2
12:44 64.8 °F /  18.2 °C 64.2 °F /  17.9 °C 29.82in /  1009.7hPa ESE 0.9mph /  1.4km/h 1mph /  1.6km/h 98% 0in /  0mm meteobridge W/m2
12:49 64.8 °F /  18.2 °C 64.2 °F /  17.9 °C 29.82in /  1009.7hPa Calm     98% 0in /  0mm meteobridge W/m2
12:54 64.8 °F /  18.2 °C 64.2 °F /  17.9 °C 29.82in /  1009.7hPa Calm     98% 0in /  0mm meteobridge W/m2
12:59 64.6 °F /  18.1 °C 64 °F /  17.8 °C 29.82in /  1009.7hPa Calm     98% 0in /  0mm meteobridge W/m2
13:04 64.8 °F /  18.2 °C 64.2 °F /  17.9 °C 29.81in /  1009.4hPa Calm   2mph /  3.2km/h 98% 0in /  0mm meteobridge W/m2
13:09 64.8 °F /  18.2 °C 64.2 °F /  17.9 °C 29.81in /  1009.4hPa Calm     98% 0in /  0mm meteobridge W/m2
13:14 64.9 °F /  18.3 °C 64.4 °F /  18 °C 29.81in /  1009.4hPa Calm   2mph /  3.2km/h 98% 0in /  0mm meteobridge W/m2
13:19 64.9 °F /  18.3 °C 64.4 °F /  18 °C 29.81in /  1009.4hPa Calm     98% 0in /  0mm meteobridge W/m2
13:24 65.1 °F /  18.4 °C 64.8 °F /  18.2 °C 29.80in /  1009hPa Calm   1mph /  1.6km/h 99% 0in /  0mm meteobridge W/m2
13:29 65.7 °F /  18.7 °C 65.3 °F /  18.5 °C 29.80in /  1009hPa Calm     99% 0in /  0mm meteobridge W/m2
13:34 66 °F /  18.9 °C 65.7 °F /  18.7 °C 29.80in /  1009hPa Calm   1mph /  1.6km/h 99% 0in /  0mm meteobridge W/m2
13:39 65.8 °F /  18.8 °C 64.9 °F /  18.3 °C 29.80in /  1009hPa Calm     97% 0in /  0mm meteobridge W/m2
13:44 65.7 °F /  18.7 °C 64.8 °F /  18.2 °C 29.80in /  1009hPa Calm     97% 0in /  0mm meteobridge W/m2
13:49 65.5 °F /  18.6 °C 64.6 °F /  18.1 °C 29.80in /  1009hPa Calm     97% 0in /  0mm meteobridge W/m2
13:54 65.7 °F /  18.7 °C 65.1 °F /  18.4 °C 29.80in /  1009hPa Calm     98% 0in /  0mm meteobridge W/m2
13:59 66 °F /  18.9 °C 65.5 °F /  18.6 °C 29.79in /  1008.7hPa Calm   2mph /  3.2km/h 98% 0in /  0mm meteobridge W/m2
14:04 66.4 °F /  19.1 °C 65.8 °F /  18.8 °C 29.80in /  1009hPa Calm     98% 0in /  0mm meteobridge W/m2
14:09 66.4 °F /  19.1 °C 65.5 °F /  18.6 °C 29.80in /  1009hPa Calm   2mph /  3.2km/h 97% 0in /  0mm meteobridge W/m2
14:14 66.2 °F /  19 °C 64.9 °F /  18.3 °C 29.80in /  1009hPa Calm     96% 0in /  0mm meteobridge W/m2
14:19 66.2 °F /  19 °C 64.9 °F /  18.3 °C 29.79in /  1008.7hPa Calm     96% 0in /  0mm meteobridge W/m2
14:24 66.6 °F /  19.2 °C 65.7 °F /  18.7 °C 29.79in /  1008.7hPa Calm     97% 0in /  0mm meteobridge W/m2
14:29 66.9 °F /  19.4 °C 66.4 °F /  19.1 °C 29.79in /  1008.7hPa Calm   3mph /  4.8km/h 98% 0in /  0mm meteobridge W/m2
14:34 67.3 °F /  19.6 °C 66 °F /  18.9 °C 29.79in /  1008.7hPa Calm   2mph /  3.2km/h 96% 0in /  0mm meteobridge W/m2
14:39 67.3 °F /  19.6 °C 65.8 °F /  18.8 °C 29.79in /  1008.7hPa Calm   2mph /  3.2km/h 95% 0in /  0mm meteobridge W/m2
14:44 67.3 °F /  19.6 °C 66 °F /  18.9 °C 29.79in /  1008.7hPa East 0.9mph /  1.4km/h 4mph /  6.4km/h 96% 0in /  0mm meteobridge W/m2
14:49 67.1 °F /  19.5 °C 65.3 °F /  18.5 °C 29.79in /  1008.7hPa Calm   3mph /  4.8km/h 94% 0in /  0mm meteobridge W/m2
14:54 67.3 °F /  19.6 °C 65.8 °F /  18.8 °C 29.78in /  1008.4hPa Calm     95% 0in /  0mm meteobridge W/m2
14:59 67.3 °F /  19.6 °C 66 °F /  18.9 °C 29.78in /  1008.4hPa Calm   3mph /  4.8km/h 96% 0in /  0mm meteobridge W/m2
15:04 67.5 °F /  19.7 °C 66 °F /  18.9 °C 29.78in /  1008.4hPa Calm   1mph /  1.6km/h 95% 0in /  0mm meteobridge W/m2
15:09 67.8 °F /  19.9 °C 66 °F /  18.9 °C 29.78in /  1008.4hPa Calm   1mph /  1.6km/h 94% 0in /  0mm meteobridge W/m2
15:14 67.6 °F /  19.8 °C 65.5 °F /  18.6 °C 29.78in /  1008.4hPa Calm   1mph /  1.6km/h 93% 0in /  0mm meteobridge W/m2
15:19 67.6 °F /  19.8 °C 64.9 °F /  18.3 °C 29.77in /  1008hPa Calm   1mph /  1.6km/h 91% 0in /  0mm meteobridge W/m2
15:24 67.6 °F /  19.8 °C 65.5 °F /  18.6 °C 29.77in /  1008hPa Calm     93% 0in /  0mm meteobridge W/m2
15:29 67.8 °F /  19.9 °C 66 °F /  18.9 °C 29.77in /  1008hPa Calm   3mph /  4.8km/h 94% 0in /  0mm meteobridge W/m2
15:34 68.2 °F /  20.1 °C 66.4 °F /  19.1 °C 29.76in /  1007.7hPa Calm     94% 0in /  0mm meteobridge W/m2
15:39 68.4 °F /  20.2 °C 66 °F /  18.9 °C 29.76in /  1007.7hPa Calm     92% 0in /  0mm meteobridge W/m2
15:44 68.5 °F /  20.3 °C 66.4 °F /  19.1 °C 29.76in /  1007.7hPa Calm   1mph /  1.6km/h 93% 0in /  0mm meteobridge W/m2
15:49 69.1 °F /  20.6 °C 66.4 °F /  19.1 °C 29.76in /  1007.7hPa Calm   1mph /  1.6km/h 91% 0in /  0mm meteobridge W/m2
15:54 69.3 °F /  20.7 °C 65.8 °F /  18.8 °C 29.76in /  1007.7hPa Calm   4mph /  6.4km/h 89% 0in /  0mm meteobridge W/m2
15:59 69.6 °F /  20.9 °C 66.2 °F /  19 °C 29.75in /  1007.3hPa Calm   3mph /  4.8km/h 89% 0in /  0mm meteobridge W/m2
16:04 69.6 °F /  20.9 °C 65.7 °F /  18.7 °C 29.75in /  1007.3hPa Calm   1mph /  1.6km/h 87% 0in /  0mm meteobridge W/m2
16:09 69.8 °F /  21 °C 65.5 °F /  18.6 °C 29.75in /  1007.3hPa Calm     86% 0in /  0mm meteobridge W/m2
16:14 70 °F /  21.1 °C 65.7 °F /  18.7 °C 29.75in /  1007.3hPa Calm   5mph /  8km/h 86% 0in /  0mm meteobridge W/m2
16:19 69.8 °F /  21 °C 65.5 °F /  18.6 °C 29.75in /  1007.3hPa WNW 2mph /  3.2km/h 2mph /  3.2km/h 86% 0in /  0mm meteobridge W/m2
16:24 69.4 °F /  20.8 °C 65.1 °F /  18.4 °C 29.75in /  1007.3hPa Calm     86% 0in /  0mm meteobridge W/m2
16:29 69.3 °F /  20.7 °C 65.3 °F /  18.5 °C 29.75in /  1007.3hPa Calm   1mph /  1.6km/h 87% 0in /  0mm meteobridge W/m2
16:34 69.4 °F /  20.8 °C 66 °F /  18.9 °C 29.75in /  1007.3hPa Calm   5mph /  8km/h 89% 0in /  0mm meteobridge W/m2
16:39 69.4 °F /  20.8 °C 64.8 °F /  18.2 °C 29.75in /  1007.3hPa Calm   1mph /  1.6km/h 85% 0in /  0mm meteobridge W/m2
16:44 69.1 °F /  20.6 °C 64.8 °F /  18.2 °C 29.75in /  1007.3hPa Calm   1mph /  1.6km/h 86% 0in /  0mm meteobridge W/m2
16:49 68.7 °F /  20.4 °C 65.3 °F /  18.5 °C 29.75in /  1007.3hPa Calm   3mph /  4.8km/h 89% 0in /  0mm meteobridge W/m2
16:54 68.7 °F /  20.4 °C 65.3 °F /  18.5 °C 29.75in /  1007.3hPa Calm     89% 0in /  0mm meteobridge W/m2
16:59 68.7 °F /  20.4 °C 65.3 °F /  18.5 °C 29.75in /  1007.3hPa Calm   4mph /  6.4km/h 89% 0in /  0mm meteobridge W/m2
17:04 68.7 °F /  20.4 °C 65.3 °F /  18.5 °C 29.75in /  1007.3hPa Calm     89% 0in /  0mm meteobridge W/m2
17:09 68.7 °F /  20.4 °C 64.9 °F /  18.3 °C 29.75in /  1007.3hPa Calm   8mph /  12.9km/h 88% 0in /  0mm meteobridge W/m2
17:14 68.5 °F /  20.3 °C 64.8 °F /  18.2 °C 29.74in /  1007hPa Calm   3mph /  4.8km/h 88% 0in /  0mm meteobridge W/m2
17:19 68.5 °F /  20.3 °C 64.8 °F /  18.2 °C 29.74in /  1007hPa Calm   2mph /  3.2km/h 88% 0in /  0mm meteobridge W/m2
17:24 68.7 °F /  20.4 °C 65.3 °F /  18.5 °C 29.74in /  1007hPa Calm   3mph /  4.8km/h 89% 0in /  0mm meteobridge W/m2
17:29 68.9 °F /  20.5 °C 65.1 °F /  18.4 °C 29.74in /  1007hPa Calm   2mph /  3.2km/h 88% 0in /  0mm meteobridge W/m2
17:34 68.9 °F /  20.5 °C 65.8 °F /  18.8 °C 29.74in /  1007hPa Calm   1mph /  1.6km/h 90% 0in /  0mm meteobridge W/m2
17:39 69.1 °F /  20.6 °C 65.7 °F /  18.7 °C 29.74in /  1007hPa Calm   1mph /  1.6km/h 89% 0in /  0mm meteobridge W/m2
17:44 69.3 °F /  20.7 °C 65.8 °F /  18.8 °C 29.74in /  1007hPa Calm     89% 0in /  0mm meteobridge W/m2
17:49 69.3 °F /  20.7 °C 65.8 °F /  18.8 °C 29.74in /  1007hPa Calm     89% 0in /  0mm meteobridge W/m2
17:54 69.3 °F /  20.7 °C 65.5 °F /  18.6 °C 29.74in /  1007hPa Calm   3mph /  4.8km/h 88% 0in /  0mm meteobridge W/m2
17:59 69.1 °F /  20.6 °C 65.3 °F /  18.5 °C 29.74in /  1007hPa Calm   1mph /  1.6km/h 88% 0in /  0mm meteobridge W/m2
18:04 69.3 °F /  20.7 °C 65.5 °F /  18.6 °C 29.74in /  1007hPa Calm     88% 0in /  0mm meteobridge W/m2
18:09 69.1 °F /  20.6 °C 65.7 °F /  18.7 °C 29.74in /  1007hPa Calm     89% 0in /  0mm meteobridge W/m2
18:14 69.1 °F /  20.6 °C 66 °F /  18.9 °C 29.74in /  1007hPa Calm     90% 0in /  0mm meteobridge W/m2
18:19 68.7 °F /  20.4 °C 65.7 °F /  18.7 °C 29.74in /  1007hPa Calm     90% 0in /  0mm meteobridge W/m2
18:24 68.7 °F /  20.4 °C 65.7 °F /  18.7 °C 29.74in /  1007hPa Calm     90% 0in /  0mm meteobridge W/m2
18:29 68.5 °F /  20.3 °C 65.5 °F /  18.6 °C 29.74in /  1007hPa Calm     90% 0in /  0mm meteobridge W/m2
18:34 68.5 °F /  20.3 °C 65.5 °F /  18.6 °C 29.74in /  1007hPa Calm     90% 0in /  0mm meteobridge W/m2
18:39 68.4 °F /  20.2 °C 65.3 °F /  18.5 °C 29.74in /  1007hPa Calm     90% 0in /  0mm meteobridge W/m2
18:44 68.4 °F /  20.2 °C 65.3 °F /  18.5 °C 29.74in /  1007hPa Calm     90% 0in /  0mm meteobridge W/m2
18:49 68.2 °F /  20.1 °C 65.5 °F /  18.6 °C 29.74in /  1007hPa Calm     91% 0in /  0mm meteobridge W/m2
18:54 68.2 °F /  20.1 °C 65.5 °F /  18.6 °C 29.74in /  1007hPa Calm     91% 0in /  0mm meteobridge W/m2
18:59 68 °F /  20 °C 65.7 °F /  18.7 °C 29.74in /  1007hPa Calm     92% 0in /  0mm meteobridge W/m2
19:04 67.8 °F /  19.9 °C 65.5 °F /  18.6 °C 29.74in /  1007hPa Calm     92% 0in /  0mm meteobridge W/m2
19:09 67.6 °F /  19.8 °C 65.5 °F /  18.6 °C 29.73in /  1006.7hPa Calm     93% 0in /  0mm meteobridge W/m2
19:14 67.6 °F /  19.8 °C 65.8 °F /  18.8 °C 29.73in /  1006.7hPa Calm     94% 0in /  0mm meteobridge W/m2
19:19 67.6 °F /  19.8 °C 65.8 °F /  18.8 °C 29.74in /  1007hPa Calm   1mph /  1.6km/h 94% 0in /  0mm meteobridge W/m2
19:24 67.6 °F /  19.8 °C 65.5 °F /  18.6 °C 29.74in /  1007hPa Calm     93% 0in /  0mm meteobridge W/m2
19:29 67.6 °F /  19.8 °C 65.8 °F /  18.8 °C 29.74in /  1007hPa Calm     94% 0in /  0mm meteobridge W/m2
19:34 67.5 °F /  19.7 °C 65.1 °F /  18.4 °C 29.74in /  1007hPa Calm   1mph /  1.6km/h 92% 0in /  0mm meteobridge W/m2
19:39 67.3 °F /  19.6 °C 64.9 °F /  18.3 °C 29.74in /  1007hPa Calm     92% 0in /  0mm meteobridge W/m2
19:44 67.1 °F /  19.5 °C 64.9 °F /  18.3 °C 29.75in /  1007.3hPa Calm     93% 0in /  0mm meteobridge W/m2
19:49 66.9 °F /  19.4 °C 64.8 °F /  18.2 °C 29.75in /  1007.3hPa Calm     93% 0in /  0mm meteobridge W/m2
19:54 66.7 °F /  19.3 °C 64.6 °F /  18.1 °C 29.75in /  1007.3hPa Calm     93% 0in /  0mm meteobridge W/m2
19:59 66.6 °F /  19.2 °C 64.8 °F /  18.2 °C 29.75in /  1007.3hPa Calm     94% 0in /  0mm meteobridge W/m2
20:04 66.4 °F /  19.1 °C 64.6 °F /  18.1 °C 29.75in /  1007.3hPa Calm     94% 0in /  0mm meteobridge W/m2
20:09 66 °F /  18.9 °C 64.6 °F /  18.1 °C 29.75in /  1007.3hPa Calm     95% 0in /  0mm meteobridge W/m2
20:14 66 °F /  18.9 °C 64.6 °F /  18.1 °C 29.75in /  1007.3hPa Calm     95% 0in /  0mm meteobridge W/m2
20:19 65.8 °F /  18.8 °C 64.4 °F /  18 °C 29.75in /  1007.3hPa Calm     95% 0in /  0mm meteobridge W/m2
20:24 65.7 °F /  18.7 °C 64.2 °F /  17.9 °C 29.75in /  1007.3hPa Calm     95% 0in /  0mm meteobridge W/m2
20:29 65.5 °F /  18.6 °C 64.2 °F /  17.9 °C 29.75in /  1007.3hPa Calm     96% 0in /  0mm meteobridge W/m2
20:34 65.3 °F /  18.5 °C 64 °F /  17.8 °C 29.75in /  1007.3hPa Calm     96% 0in /  0mm meteobridge W/m2
20:39 65.1 °F /  18.4 °C 64 °F /  17.8 °C 29.75in /  1007.3hPa Calm     96% 0in /  0mm meteobridge W/m2
20:44 64.9 °F /  18.3 °C 64 °F /  17.8 °C 29.75in /  1007.3hPa Calm     97% 0in /  0mm meteobridge W/m2
20:49 64.9 °F /  18.3 °C 64 °F /  17.8 °C 29.76in /  1007.7hPa Calm     97% 0in /  0mm meteobridge W/m2
20:54 64.8 °F /  18.2 °C 63.9 °F /  17.7 °C 29.76in /  1007.7hPa Calm     97% 0in /  0mm meteobridge W/m2
20:59 64.8 °F /  18.2 °C 63.7 °F /  17.6 °C 29.76in /  1007.7hPa Calm     96% 0in /  0mm meteobridge W/m2
21:04 64.6 °F /  18.1 °C 63.7 °F /  17.6 °C 29.76in /  1007.7hPa Calm     97% 0in /  0mm meteobridge W/m2
21:09 64.6 °F /  18.1 °C 63.7 °F /  17.6 °C 29.76in /  1007.7hPa Calm     97% 0in /  0mm meteobridge W/m2
21:14 64.6 °F /  18.1 °C 63.7 °F /  17.6 °C 29.77in /  1008hPa Calm     97% 0in /  0mm meteobridge W/m2
21:19 64.4 °F /  18 °C 63.5 °F /  17.5 °C 29.77in /  1008hPa Calm     97% 0in /  0mm meteobridge W/m2
21:24 64.2 °F /  17.9 °C 63.3 °F /  17.4 °C 29.77in /  1008hPa Calm     97% 0in /  0mm meteobridge W/m2
21:29 64.2 °F /  17.9 °C 63.3 °F /  17.4 °C 29.77in /  1008hPa Calm     97% 0in /  0mm meteobridge W/m2
21:34 64.2 °F /  17.9 °C 63.3 °F /  17.4 °C 29.77in /  1008hPa Calm     97% 0in /  0mm meteobridge W/m2
21:39 64 °F /  17.8 °C 63.1 °F /  17.3 °C 29.77in /  1008hPa Calm     97% 0in /  0mm meteobridge W/m2
21:44 64 °F /  17.8 °C 63.1 °F /  17.3 °C 29.77in /  1008hPa Calm     97% 0in /  0mm meteobridge W/m2
21:49 64 °F /  17.8 °C 63.1 °F /  17.3 °C 29.77in /  1008hPa Calm     97% 0in /  0mm meteobridge W/m2
21:54 64 °F /  17.8 °C 63.1 °F /  17.3 °C 29.77in /  1008hPa Calm     97% 0in /  0mm meteobridge W/m2
21:59 64 °F /  17.8 °C 63.5 °F /  17.5 °C 29.77in /  1008hPa Calm     98% 0in /  0mm meteobridge W/m2
22:04 63.9 °F /  17.7 °C 63.3 °F /  17.4 °C 29.77in /  1008hPa Calm     98% 0in /  0mm meteobridge W/m2
22:09 63.9 °F /  17.7 °C 63.3 °F /  17.4 °C 29.78in /  1008.4hPa Calm     98% 0in /  0mm meteobridge W/m2
22:14 63.7 °F /  17.6 °C 63.1 °F /  17.3 °C 29.78in /  1008.4hPa Calm     98% 0in /  0mm meteobridge W/m2
22:19 63.7 °F /  17.6 °C 63.1 °F /  17.3 °C 29.78in /  1008.4hPa Calm     98% 0in /  0mm meteobridge W/m2
22:24 63.7 °F /  17.6 °C 63.1 °F /  17.3 °C 29.78in /  1008.4hPa Calm     98% 0in /  0mm meteobridge W/m2
22:29 63.7 °F /  17.6 °C 63.1 °F /  17.3 °C 29.78in /  1008.4hPa Calm     98% 0in /  0mm meteobridge W/m2
22:34 63.7 °F /  17.6 °C 63.1 °F /  17.3 °C 29.78in /  1008.4hPa Calm     98% 0in /  0mm meteobridge W/m2
22:39 63.7 °F /  17.6 °C 63.1 °F /  17.3 °C 29.79in /  1008.7hPa Calm     98% 0in /  0mm meteobridge W/m2
22:44 63.7 °F /  17.6 °C 63.1 °F /  17.3 °C 29.79in /  1008.7hPa Calm     98% 0in /  0mm meteobridge W/m2
22:49 63.7 °F /  17.6 °C 63.1 °F /  17.3 °C 29.79in /  1008.7hPa Calm     98% 0in /  0mm meteobridge W/m2
22:54 63.7 °F /  17.6 °C 63.1 °F /  17.3 °C 29.78in /  1008.4hPa Calm     98% 0in /  0mm meteobridge W/m2
22:59 63.5 °F /  17.5 °C 63 °F /  17.2 °C 29.79in /  1008.7hPa Calm     98% 0in /  0mm meteobridge W/m2
23:04 63.7 °F /  17.6 °C 63.1 °F /  17.3 °C 29.79in /  1008.7hPa Calm     98% 0in /  0mm meteobridge W/m2
23:09 63.7 °F /  17.6 °C 63.1 °F /  17.3 °C 29.80in /  1009hPa Calm     98% 0in /  0mm meteobridge W/m2
23:14 63.7 °F /  17.6 °C 63.1 °F /  17.3 °C 29.80in /  1009hPa Calm     98% 0.01in /  0.25mm meteobridge W/m2
23:19 63.5 °F /  17.5 °C 63 °F /  17.2 °C 29.80in /  1009hPa Calm     98% 0.01in /  0.25mm meteobridge W/m2
23:24 63.3 °F /  17.4 °C 62.8 °F /  17.1 °C 29.80in /  1009hPa Calm     98% 0.01in /  0.25mm meteobridge W/m2
23:29 63.1 °F /  17.3 °C 62.6 °F /  17 °C 29.80in /  1009hPa Calm     98% 0.01in /  0.25mm meteobridge W/m2
23:34 63 °F /  17.2 °C 62.1 °F /  16.7 °C 29.80in /  1009hPa Calm     97% 0.01in /  0.25mm meteobridge W/m2
23:39 63 °F /  17.2 °C 62.1 °F /  16.7 °C 29.80in /  1009hPa Calm     97% 0.01in /  0.25mm meteobridge W/m2
23:44 62.8 °F /  17.1 °C 61.9 °F /  16.6 °C 29.80in /  1009hPa Calm     97% 0.01in /  0.25mm meteobridge W/m2
23:49 62.8 °F /  17.1 °C 61.9 °F /  16.6 °C 29.80in /  1009hPa Calm     97% 0.01in /  0.25mm meteobridge W/m2
23:54 62.6 °F /  17 °C 62.1 °F /  16.7 °C 29.80in /  1009hPa Calm     98% 0.01in /  0.25mm meteobridge W/m2
23:59 62.4 °F /  16.9 °C 61.5 °F /  16.4 °C 29.80in /  1009hPa Calm     97% 0.01in /  0.25mm meteobridge W/m2
EllijayWeather
Compliments of Weather Underground - 2.5 mb